createdAt,value
2022-10-13T00:01:11.822Z,11.53
2022-10-13T00:03:40.258Z,11.50
2022-10-13T00:06:10.308Z,11.48
2022-10-13T00:08:40.866Z,11.47
2022-10-13T00:11:14.091Z,11.46
2022-10-13T00:13:43.385Z,11.43
2022-10-13T00:16:12.830Z,11.42
2022-10-13T00:18:41.114Z,11.40
2022-10-13T00:21:10.984Z,11.39
2022-10-13T00:23:42.037Z,11.38
2022-10-13T00:26:12.142Z,11.36
2022-10-13T00:28:40.942Z,11.34
2022-10-13T00:31:19.489Z,11.31
2022-10-13T00:33:49.322Z,11.30
2022-10-13T00:36:17.821Z,11.28
2022-10-13T00:38:47.773Z,11.26
2022-10-13T00:41:16.352Z,11.23
2022-10-13T00:43:54.081Z,11.25
2022-10-13T00:46:22.713Z,11.20
2022-10-13T00:48:52.228Z,11.20
2022-10-13T00:51:23.551Z,11.21
2022-10-13T00:53:54.108Z,11.19
2022-10-13T00:56:24.814Z,11.17
2022-10-13T00:58:54.587Z,11.14
2022-10-13T01:01:22.660Z,11.13
2022-10-13T01:03:50.758Z,11.11
2022-10-13T01:06:23.717Z,11.08
2022-10-13T01:08:54.814Z,11.07
2022-10-13T01:11:48.976Z,11.06
2022-10-13T01:14:27.558Z,11.05
2022-10-13T01:17:05.358Z,10.98
2022-10-13T01:19:57.561Z,10.96
2022-10-13T01:22:45.640Z,10.95
2022-10-13T01:25:30.257Z,10.92
2022-10-13T01:28:22.126Z,10.88
2022-10-13T01:30:57.432Z,10.88
2022-10-13T01:33:36.732Z,10.86
2022-10-13T01:36:16.459Z,10.83
2022-10-13T01:38:50.273Z,10.82
2022-10-13T01:41:26.504Z,10.82
2022-10-13T01:44:01.748Z,10.78
2022-10-13T01:46:35.306Z,10.77
2022-10-13T01:49:07.249Z,10.76
2022-10-13T01:51:36.557Z,10.75
2022-10-13T01:54:04.966Z,10.72
2022-10-13T01:56:33.084Z,10.74
2022-10-13T01:59:05.161Z,10.71
2022-10-13T02:01:44.919Z,10.66
2022-10-13T02:04:25.103Z,10.66
2022-10-13T02:06:56.641Z,10.65
2022-10-13T02:09:28.239Z,10.64
2022-10-13T02:12:03.868Z,10.63
2022-10-13T02:14:35.043Z,10.64
2022-10-13T02:17:06.455Z,10.63
2022-10-13T02:19:35.734Z,10.61
2022-10-13T02:22:05.364Z,10.58
2022-10-13T02:24:34.460Z,10.56
2022-10-13T02:27:02.950Z,10.56
2022-10-13T02:29:31.174Z,10.54
2022-10-13T02:31:59.329Z,10.53
2022-10-13T02:34:29.016Z,10.52
2022-10-13T02:36:57.040Z,10.46
2022-10-13T02:39:25.159Z,10.44
2022-10-13T02:41:53.230Z,10.44
2022-10-13T02:44:21.285Z,10.42
2022-10-13T02:46:49.387Z,10.39
2022-10-13T02:49:17.516Z,10.37
2022-10-13T02:51:46.986Z,10.39
2022-10-13T02:54:15.064Z,10.33
2022-10-13T02:56:43.230Z,10.33
2022-10-13T02:59:12.152Z,10.32
2022-10-13T03:01:41.835Z,10.31
2022-10-13T03:04:10.452Z,10.30
2022-10-13T03:06:38.887Z,10.26
2022-10-13T03:09:08.579Z,10.26
2022-10-13T03:11:36.801Z,10.23
2022-10-13T03:14:05.002Z,10.23
2022-10-13T03:16:33.223Z,10.21
2022-10-13T03:19:01.490Z,10.20
2022-10-13T03:21:30.164Z,10.16
2022-10-13T03:23:58.318Z,10.15
2022-10-13T03:26:27.898Z,10.14
2022-10-13T03:28:56.075Z,10.15
2022-10-13T03:31:24.310Z,10.12
2022-10-13T03:33:52.793Z,10.09
2022-10-13T03:36:21.339Z,10.08
2022-10-13T03:38:49.466Z,10.06
2022-10-13T03:41:19.906Z,10.06
2022-10-13T03:43:49.498Z,10.05
2022-10-13T03:46:19.231Z,10.01
2022-10-13T03:48:49.099Z,9.98
2022-10-13T03:51:19.643Z,10.01
2022-10-13T03:53:48.740Z,9.98
2022-10-13T03:56:19.074Z,9.96
2022-10-13T03:58:47.163Z,9.96
2022-10-13T04:01:17.015Z,9.94
2022-10-13T04:03:45.220Z,9.90
2022-10-13T04:06:13.580Z,9.91
2022-10-13T04:08:41.838Z,9.93
2022-10-13T04:11:12.974Z,9.92
2022-10-13T04:13:41.307Z,9.92
2022-10-13T04:16:13.285Z,9.93
2022-10-13T04:18:44.809Z,9.95
2022-10-13T04:21:15.449Z,9.95
2022-10-13T04:23:43.791Z,9.94
2022-10-13T04:26:17.549Z,9.94
2022-10-13T04:28:46.410Z,9.93
2022-10-13T04:31:15.168Z,9.92
2022-10-13T04:33:45.880Z,9.88
2022-10-13T04:36:15.304Z,9.87
2022-10-13T04:38:44.375Z,9.86
2022-10-13T04:41:14.281Z,9.83
2022-10-13T04:43:42.765Z,9.78
2022-10-13T04:46:14.100Z,9.79
2022-10-13T04:48:44.448Z,9.74
2022-10-13T04:51:14.846Z,9.75
2022-10-13T04:53:42.980Z,9.74
2022-10-13T04:56:13.432Z,9.73
2022-10-13T04:58:42.760Z,9.70
2022-10-13T05:01:17.658Z,9.68
2022-10-13T05:03:52.178Z,9.68
2022-10-13T05:06:22.570Z,9.67
2022-10-13T05:08:50.998Z,9.64
2022-10-13T05:11:20.672Z,9.64
2022-10-13T05:13:49.288Z,9.65
2022-10-13T05:16:19.616Z,9.66
2022-10-13T05:18:47.866Z,9.66
2022-10-13T05:21:19.431Z,9.69
2022-10-13T05:23:47.445Z,9.71
2022-10-13T05:26:18.554Z,9.65
2022-10-13T05:28:47.204Z,9.70
2022-10-13T05:31:17.132Z,9.69
2022-10-13T05:33:46.650Z,9.71
2022-10-13T05:36:18.413Z,9.70
2022-10-13T05:38:46.853Z,9.66
2022-10-13T05:41:15.796Z,9.66
2022-10-13T05:43:44.285Z,9.62
2022-10-13T05:46:12.686Z,9.62
2022-10-13T05:48:40.905Z,9.63
2022-10-13T05:51:14.967Z,9.63
2022-10-13T05:53:51.923Z,9.64
2022-10-13T05:56:24.937Z,9.65
2022-10-13T05:58:57.525Z,9.64
2022-10-13T06:01:30.201Z,9.62
2022-10-13T06:04:03.288Z,9.63
2022-10-13T06:06:31.896Z,9.66
2022-10-13T06:09:02.246Z,9.66
2022-10-13T06:11:30.439Z,9.66
2022-10-13T06:13:58.751Z,9.66
2022-10-13T06:16:26.925Z,9.66
2022-10-13T06:18:55.054Z,9.66
2022-10-13T06:21:23.183Z,9.68
2022-10-13T06:23:51.248Z,9.71
2022-10-13T06:26:20.719Z,9.72
2022-10-13T06:28:51.035Z,9.75
2022-10-13T06:31:19.956Z,9.73
2022-10-13T06:33:50.870Z,9.75
2022-10-13T06:36:18.996Z,9.75
2022-10-13T06:38:47.200Z,9.73
2022-10-13T06:41:15.307Z,9.73
2022-10-13T06:43:45.029Z,9.74
2022-10-13T06:46:13.772Z,9.72
2022-10-13T06:48:41.973Z,9.70
2022-10-13T06:51:12.808Z,9.66
2022-10-13T06:53:40.992Z,9.65
2022-10-13T06:56:09.854Z,9.66
2022-10-13T06:58:38.478Z,9.67
2022-10-13T07:01:09.322Z,9.68
2022-10-13T07:03:37.499Z,9.67
2022-10-13T07:06:07.240Z,9.66
2022-10-13T07:08:35.927Z,9.69
2022-10-13T07:11:12.941Z,9.81
2022-10-13T07:13:46.531Z,9.84
2022-10-13T07:16:17.536Z,9.87
2022-10-13T07:18:45.600Z,9.86
2022-10-13T07:21:13.741Z,9.86
2022-10-13T07:23:41.919Z,9.89
2022-10-13T07:26:10.835Z,9.91
2022-10-13T07:28:39.810Z,9.94
2022-10-13T07:31:13.839Z,9.94
2022-10-13T07:33:45.529Z,9.96
2022-10-13T07:36:14.165Z,9.98
2022-10-13T07:38:42.923Z,10.05
2022-10-13T07:41:13.427Z,10.07
2022-10-13T07:43:41.929Z,10.09
2022-10-13T07:46:11.736Z,10.11
2022-10-13T07:48:39.887Z,10.13
2022-10-13T07:51:11.475Z,10.17
2022-10-13T07:53:40.254Z,10.11
2022-10-13T07:56:11.969Z,10.17
2022-10-13T07:58:41.948Z,10.22
2022-10-13T08:01:10.492Z,10.26
2022-10-13T08:03:40.190Z,10.22
2022-10-13T08:06:12.568Z,10.30
2022-10-13T08:08:41.357Z,10.33
2022-10-13T08:11:16.130Z,10.41
2022-10-13T08:13:48.289Z,10.45
2022-10-13T08:16:16.440Z,10.51
2022-10-13T08:18:44.624Z,10.58
2022-10-13T08:24:06.463Z,10.69
2022-10-13T08:26:35.014Z,10.73
2022-10-13T08:29:20.295Z,10.83
2022-10-13T08:34:23.655Z,10.92
2022-10-13T08:36:56.327Z,10.99
2022-10-13T08:39:25.407Z,11.03
2022-10-13T08:41:54.294Z,11.02
2022-10-13T08:47:25.761Z,11.11
2022-10-13T08:49:59.782Z,11.15
2022-10-13T08:52:43.478Z,11.19
2022-10-13T08:55:21.457Z,11.25
2022-10-13T08:57:49.671Z,11.29
2022-10-13T09:00:18.667Z,11.32
2022-10-13T09:02:51.410Z,11.36
2022-10-13T09:05:30.821Z,11.40
2022-10-13T09:08:01.225Z,11.43
2022-10-13T09:10:29.431Z,11.50
2022-10-13T09:12:59.633Z,11.57
2022-10-13T09:15:27.850Z,11.61
2022-10-13T09:18:11.317Z,11.68
2022-10-13T09:20:39.988Z,11.74
2022-10-13T09:23:20.108Z,11.78
2022-10-13T09:25:50.120Z,11.82
2022-10-13T09:28:21.918Z,11.88
2022-10-13T09:31:01.383Z,11.95
2022-10-13T09:33:29.595Z,12.09
2022-10-13T09:36:16.542Z,12.21
2022-10-13T09:39:07.035Z,12.39
2022-10-13T09:41:36.349Z,12.52
2022-10-13T09:44:14.924Z,12.67
2022-10-13T09:46:50.073Z,12.78
2022-10-13T09:49:34.777Z,12.86
2022-10-13T09:52:05.841Z,12.95
2022-10-13T09:54:46.832Z,13.04
2022-10-13T09:57:30.071Z,13.13
2022-10-13T10:00:06.346Z,13.20
2022-10-13T10:02:37.472Z,13.27
2022-10-13T10:05:08.977Z,13.33
2022-10-13T10:07:37.165Z,13.37
2022-10-13T10:10:15.575Z,13.39
2022-10-13T10:12:44.981Z,13.48
2022-10-13T10:15:34.635Z,13.52
2022-10-13T10:18:08.793Z,13.61
2022-10-13T10:20:58.424Z,13.70
2022-10-13T10:23:38.317Z,13.75
2022-10-13T10:26:20.761Z,13.71
2022-10-13T10:29:08.777Z,13.74
2022-10-13T10:31:48.210Z,13.78
2022-10-13T10:34:30.001Z,13.87
2022-10-13T10:37:13.389Z,13.96
2022-10-13T10:39:49.311Z,14.07
2022-10-13T10:42:38.120Z,14.18
2022-10-13T10:45:17.280Z,14.32
2022-10-13T10:47:49.209Z,14.41
2022-10-13T10:50:19.346Z,14.50
2022-10-13T10:52:56.173Z,14.60
2022-10-13T10:55:31.455Z,14.70
2022-10-13T10:58:13.637Z,14.83
2022-10-13T11:00:50.196Z,14.99
2022-10-13T11:03:29.915Z,15.13
2022-10-13T11:06:04.889Z,15.25
2022-10-13T11:08:42.369Z,15.39
2022-10-13T11:11:37.993Z,15.53
2022-10-13T11:14:32.191Z,15.59
2022-10-13T11:17:11.455Z,15.43
2022-10-13T11:19:40.740Z,15.18
2022-10-13T11:22:14.478Z,15.01
2022-10-13T11:24:48.898Z,14.86
2022-10-13T11:27:25.679Z,14.78
2022-10-13T11:29:58.448Z,14.72
2022-10-13T11:32:56.464Z,14.68
2022-10-13T11:35:28.112Z,14.66
2022-10-13T11:38:17.570Z,14.63
2022-10-13T11:41:07.200Z,14.66
2022-10-13T11:43:48.997Z,14.65
2022-10-13T11:46:59.149Z,14.73
2022-10-13T11:49:46.424Z,14.78
2022-10-13T11:52:45.856Z,14.79
2022-10-13T11:55:19.057Z,14.83
2022-10-13T11:57:47.548Z,14.82
2022-10-13T12:00:19.196Z,14.82
2022-10-13T12:02:53.501Z,14.82
2022-10-13T12:05:24.468Z,14.83
2022-10-13T12:07:55.723Z,15.00
2022-10-13T12:10:29.581Z,15.11
2022-10-13T12:12:59.255Z,15.14
2022-10-13T12:15:35.273Z,15.17
2022-10-13T12:18:22.737Z,15.14
2022-10-13T12:20:55.440Z,15.07
2022-10-13T12:23:24.487Z,15.05
2022-10-13T12:25:58.052Z,15.00
2022-10-13T12:28:29.092Z,15.01
2022-10-13T12:30:59.172Z,15.21
2022-10-13T12:33:35.532Z,15.53
2022-10-13T12:36:14.745Z,15.77
2022-10-13T12:38:48.595Z,15.80
2022-10-13T12:41:21.739Z,15.75
2022-10-13T12:43:50.500Z,15.69
2022-10-13T12:46:37.181Z,15.51
2022-10-13T12:49:08.149Z,15.47
2022-10-13T12:51:39.541Z,15.43
2022-10-13T12:54:09.881Z,15.44
2022-10-13T12:56:38.407Z,15.40
2022-10-13T12:59:06.662Z,15.45
2022-10-13T13:01:36.169Z,15.49
2022-10-13T13:04:20.241Z,15.71
2022-10-13T13:06:57.328Z,15.95
2022-10-13T13:09:30.632Z,16.08
2022-10-13T13:12:24.503Z,16.20
2022-10-13T13:14:55.146Z,16.34
2022-10-13T13:17:52.991Z,16.45
2022-10-13T13:20:23.930Z,16.52
2022-10-13T13:22:52.162Z,16.58
2022-10-13T13:25:20.605Z,16.59
2022-10-13T13:27:48.886Z,16.60
2022-10-13T13:30:19.400Z,16.59
2022-10-13T13:32:47.840Z,16.64
2022-10-13T13:35:16.497Z,16.70
2022-10-13T13:37:50.011Z,16.74
2022-10-13T13:40:20.656Z,16.78
2022-10-13T13:42:48.777Z,16.74
2022-10-13T13:45:18.224Z,16.73
2022-10-13T13:47:46.886Z,16.75
2022-10-13T13:50:18.771Z,16.65
2022-10-13T13:52:48.440Z,16.52
2022-10-13T13:55:17.070Z,16.38
2022-10-13T13:57:45.837Z,16.29
2022-10-13T14:00:16.663Z,16.19
2022-10-13T14:02:46.401Z,16.12
2022-10-13T14:05:15.396Z,16.10
2022-10-13T14:07:43.642Z,16.06
2022-10-13T14:10:13.349Z,16.06
2022-10-13T14:12:41.596Z,16.12
2022-10-13T14:15:11.385Z,16.11
2022-10-13T14:17:39.720Z,16.09
2022-10-13T14:20:08.785Z,16.04
2022-10-13T14:22:39.048Z,15.97
2022-10-13T14:25:08.681Z,15.91
2022-10-13T14:27:38.963Z,15.88
2022-10-13T14:30:08.733Z,15.85
2022-10-13T14:32:39.014Z,15.82
2022-10-13T14:35:08.530Z,15.81
2022-10-13T14:37:36.960Z,15.77
2022-10-13T14:40:06.356Z,15.71
2022-10-13T14:42:34.756Z,15.65
2022-10-13T14:45:06.588Z,15.57
2022-10-13T14:47:35.106Z,15.49
2022-10-13T14:50:03.407Z,15.41
2022-10-13T14:52:31.947Z,15.34
2022-10-13T14:55:00.350Z,15.30
2022-10-13T14:57:28.805Z,15.23
2022-10-13T15:00:01.726Z,15.18
2022-10-13T15:02:31.936Z,15.09
2022-10-13T15:05:00.441Z,15.04
2022-10-13T15:07:28.828Z,15.00
2022-10-13T15:10:07.214Z,14.98
2022-10-13T15:12:35.842Z,14.93
2022-10-13T15:15:04.875Z,14.91
2022-10-13T15:17:34.986Z,14.86
2022-10-13T15:20:04.016Z,14.86
2022-10-13T15:22:32.872Z,14.85
2022-10-13T15:25:01.157Z,14.85
2022-10-13T15:27:29.571Z,14.86
2022-10-13T15:29:58.056Z,14.87
2022-10-13T15:32:26.609Z,14.86
2022-10-13T15:34:56.464Z,14.87
2022-10-13T15:37:24.863Z,14.87
2022-10-13T15:39:57.368Z,14.86
2022-10-13T15:42:26.336Z,14.83
2022-10-13T15:45:11.568Z,14.82
2022-10-13T15:47:41.202Z,14.81
2022-10-13T15:50:12.026Z,14.81
2022-10-13T15:52:41.378Z,14.80
2022-10-13T15:55:10.717Z,14.76
2022-10-13T15:57:39.313Z,14.77
2022-10-13T16:00:10.020Z,14.82
2022-10-13T16:02:40.486Z,14.80
2022-10-13T16:05:13.175Z,14.79
2022-10-13T16:07:43.023Z,14.78
2022-10-13T16:10:14.007Z,14.75
2022-10-13T16:12:48.355Z,14.75
2022-10-13T16:15:18.574Z,14.75
2022-10-13T16:17:46.774Z,14.77
2022-10-13T16:20:16.236Z,14.76
2022-10-13T16:22:44.427Z,14.73
2022-10-13T16:25:12.803Z,14.73
2022-10-13T16:27:44.359Z,14.69
2022-10-13T16:30:13.578Z,14.64
2022-10-13T16:32:41.803Z,14.63
2022-10-13T16:35:10.340Z,14.63
2022-10-13T16:37:40.033Z,14.60
2022-10-13T16:40:09.352Z,14.57
2022-10-13T16:42:37.584Z,14.55
2022-10-13T16:45:06.937Z,14.53
2022-10-13T16:47:35.036Z,14.51
2022-10-13T16:50:06.420Z,14.48
2022-10-13T16:52:34.523Z,14.45
2022-10-13T16:55:04.216Z,14.43
2022-10-13T16:57:32.777Z,14.38
2022-10-13T17:00:01.364Z,14.41
2022-10-13T17:02:29.811Z,14.37
2022-10-13T17:04:58.009Z,14.30
2022-10-13T17:07:26.168Z,14.28
2022-10-13T17:09:54.650Z,14.26
2022-10-13T17:12:24.207Z,14.22
2022-10-13T17:14:52.316Z,14.21
2022-10-13T17:17:20.934Z,14.21
2022-10-13T17:19:49.449Z,14.19
2022-10-13T17:22:17.761Z,14.18
2022-10-13T17:24:48.453Z,14.17
2022-10-13T17:27:16.959Z,14.15
2022-10-13T17:29:46.563Z,14.14
2022-10-13T17:32:15.168Z,14.12
2022-10-13T17:34:43.285Z,14.11
2022-10-13T17:37:11.465Z,14.09
2022-10-13T17:39:40.019Z,14.16
2022-10-13T17:42:08.400Z,14.15
2022-10-13T17:44:36.570Z,14.15
2022-10-13T17:47:06.292Z,14.09
2022-10-13T17:49:34.365Z,14.04
2022-10-13T17:52:02.632Z,14.07
2022-10-13T17:54:31.017Z,14.07
2022-10-13T17:56:59.362Z,14.07
2022-10-13T17:59:27.539Z,14.06
2022-10-13T18:01:56.085Z,14.06
2022-10-13T18:04:25.933Z,14.09
2022-10-13T18:06:54.526Z,14.07
2022-10-13T18:09:24.627Z,14.06
2022-10-13T18:11:55.314Z,14.09
2022-10-13T18:14:25.373Z,14.09
2022-10-13T18:16:54.529Z,14.04
2022-10-13T18:19:22.945Z,14.01
2022-10-13T18:21:53.416Z,13.97
2022-10-13T18:24:22.070Z,13.98
2022-10-13T18:26:50.628Z,13.97
2022-10-13T18:29:19.074Z,13.91
2022-10-13T18:31:47.801Z,13.85
2022-10-13T18:34:18.187Z,13.82
2022-10-13T18:36:48.678Z,13.73
2022-10-13T18:39:19.760Z,13.70
2022-10-13T18:41:49.457Z,13.70
2022-10-13T18:44:17.925Z,13.66
2022-10-13T18:46:46.651Z,13.63
2022-10-13T18:49:18.422Z,13.63
2022-10-13T18:51:47.256Z,13.58
2022-10-13T18:54:17.356Z,13.55
2022-10-13T18:56:45.736Z,13.52
2022-10-13T18:59:13.936Z,13.51
2022-10-13T19:01:43.086Z,13.48
2022-10-13T19:04:12.989Z,13.47
2022-10-13T19:06:43.051Z,13.45
2022-10-13T19:09:15.525Z,13.43
2022-10-13T19:11:45.725Z,13.41
2022-10-13T19:14:14.852Z,13.39
2022-10-13T19:16:44.888Z,13.41
2022-10-13T19:19:13.700Z,13.40
2022-10-13T19:21:42.479Z,13.38
2022-10-13T19:24:11.950Z,13.37
2022-10-13T19:26:41.732Z,13.35
2022-10-13T19:29:14.395Z,13.28
2022-10-13T19:31:45.182Z,13.34
2022-10-13T19:34:14.858Z,13.30
2022-10-13T19:36:45.238Z,13.29
2022-10-13T19:39:16.655Z,13.23
2022-10-13T19:41:46.324Z,13.23
2022-10-13T19:44:18.996Z,13.27
2022-10-13T19:46:51.919Z,13.28
2022-10-13T19:49:22.524Z,13.29
2022-10-13T19:51:53.783Z,13.30
2022-10-13T19:54:23.216Z,13.28
2022-10-13T19:56:52.569Z,13.30
2022-10-13T19:59:23.396Z,13.28
2022-10-13T20:01:52.169Z,13.27
2022-10-13T20:04:21.575Z,13.26
2022-10-13T20:06:50.393Z,13.26
2022-10-13T20:09:19.575Z,13.27
2022-10-13T20:11:49.029Z,13.26
2022-10-13T20:14:17.712Z,13.28
2022-10-13T20:16:47.340Z,13.28
2022-10-13T20:19:19.785Z,13.28
2022-10-13T20:21:51.793Z,13.25
2022-10-13T20:24:21.596Z,13.24
2022-10-13T20:26:50.230Z,13.23
2022-10-13T20:29:18.688Z,13.21
2022-10-13T20:31:48.168Z,13.21
2022-10-13T20:34:16.348Z,13.17
2022-10-13T20:36:44.651Z,13.15
2022-10-13T20:39:12.740Z,13.13
2022-10-13T20:41:41.037Z,13.14
2022-10-13T20:44:11.070Z,13.14
2022-10-13T20:46:39.186Z,13.11
2022-10-13T20:49:11.477Z,13.11
2022-10-13T20:51:40.971Z,13.09
2022-10-13T20:54:09.535Z,13.09
2022-10-13T20:56:38.008Z,13.07
2022-10-13T20:59:07.905Z,13.05
2022-10-13T21:01:37.119Z,13.04
2022-10-13T21:04:06.167Z,13.03
2022-10-13T21:06:36.258Z,13.01
2022-10-13T21:09:05.715Z,13.00
2022-10-13T21:11:34.146Z,12.98
2022-10-13T21:14:06.369Z,12.96
2022-10-13T21:16:35.659Z,12.95
2022-10-13T21:19:04.087Z,12.92
2022-10-13T21:21:34.498Z,12.91
2022-10-13T21:24:06.224Z,12.90
2022-10-13T21:26:34.975Z,12.88
2022-10-13T21:29:03.237Z,12.86
2022-10-13T21:31:31.761Z,12.85
2022-10-13T21:34:00.020Z,12.85
2022-10-13T21:36:30.337Z,12.83
2022-10-13T21:39:00.028Z,12.81
2022-10-13T21:41:30.364Z,12.79
2022-10-13T21:43:58.562Z,12.79
2022-10-13T21:46:28.846Z,12.79
2022-10-13T21:48:58.677Z,12.78
2022-10-13T21:51:29.577Z,12.78
2022-10-13T21:53:59.825Z,12.77
2022-10-13T21:56:29.833Z,12.77
2022-10-13T21:58:58.019Z,12.75
2022-10-13T22:01:26.473Z,12.74
2022-10-13T22:03:56.586Z,12.75
2022-10-13T22:06:25.472Z,12.70
2022-10-13T22:08:55.685Z,12.69
2022-10-13T22:11:26.192Z,12.69
2022-10-13T22:13:56.898Z,12.67
2022-10-13T22:16:27.030Z,12.66
2022-10-13T22:18:57.111Z,12.63
2022-10-13T22:21:27.985Z,12.59
2022-10-13T22:23:58.942Z,12.61
2022-10-13T22:26:28.558Z,12.57
2022-10-13T22:28:59.593Z,12.55
2022-10-13T22:31:28.703Z,12.54
2022-10-13T22:33:57.025Z,12.50
2022-10-13T22:36:26.377Z,12.51
2022-10-13T22:38:56.539Z,12.49
2022-10-13T22:41:25.093Z,12.48
2022-10-13T22:43:55.476Z,12.47
2022-10-13T22:46:27.410Z,12.48
2022-10-13T22:48:56.389Z,12.46
2022-10-13T22:51:27.454Z,12.46
2022-10-13T22:53:56.581Z,12.45
2022-10-13T22:56:26.692Z,12.42
2022-10-13T22:58:57.168Z,12.41
2022-10-13T23:01:27.000Z,12.39
2022-10-13T23:03:57.362Z,12.37
2022-10-13T23:06:28.239Z,12.36
2022-10-13T23:08:56.711Z,12.35
2022-10-13T23:11:24.804Z,12.35
2022-10-13T23:13:53.092Z,12.34
2022-10-13T23:16:23.870Z,12.33
2022-10-13T23:18:54.075Z,12.31
2022-10-13T23:21:23.558Z,12.31
2022-10-13T23:23:56.226Z,12.36
2022-10-13T23:26:25.038Z,12.36
2022-10-13T23:28:53.269Z,12.36
2022-10-13T23:31:21.580Z,12.35
2022-10-13T23:33:50.068Z,12.34
2022-10-13T23:36:21.886Z,12.33
2022-10-13T23:38:50.211Z,12.31
2022-10-13T23:41:18.353Z,12.31
2022-10-13T23:43:46.822Z,12.30
2022-10-13T23:46:14.923Z,12.30
2022-10-13T23:48:43.249Z,12.30
2022-10-13T23:51:13.884Z,12.27
2022-10-13T23:53:44.012Z,12.28
2022-10-13T23:56:13.299Z,12.28
2022-10-13T23:58:42.982Z,12.27
